sensor_id;sensor_type;location;lat;lon;timestamp;P1;durP1;ratioP1;P2;durP2;ratioP2
42084;SDS011;27746;52.228;20.890;2024-01-15T00:01:14;20.50;;;11.48;;
42084;SDS011;27746;52.228;20.890;2024-01-15T00:03:41;17.42;;;10.60;;
42084;SDS011;27746;52.228;20.890;2024-01-15T00:06:08;21.50;;;10.60;;
42084;SDS011;27746;52.228;20.890;2024-01-15T00:08:37;21.30;;;10.93;;
42084;SDS011;27746;52.228;20.890;2024-01-15T00:11:04;21.95;;;11.25;;
42084;SDS011;27746;52.228;20.890;2024-01-15T00:13:31;21.23;;;11.60;;
42084;SDS011;27746;52.228;20.890;2024-01-15T00:15:58;19.10;;;10.27;;
42084;SDS011;27746;52.228;20.890;2024-01-15T00:18:25;17.35;;;10.32;;
42084;SDS011;27746;52.228;20.890;2024-01-15T00:20:52;21.85;;;11.85;;
42084;SDS011;27746;52.228;20.890;2024-01-15T00:23:19;24.70;;;11.60;;
42084;SDS011;27746;52.228;20.890;2024-01-15T00:25:48;22.23;;;12.95;;
42084;SDS011;27746;52.228;20.890;2024-01-15T00:28:15;25.70;;;12.52;;
42084;SDS011;27746;52.228;20.890;2024-01-15T00:30:42;22.95;;;12.32;;
42084;SDS011;27746;52.228;20.890;2024-01-15T00:33:09;22.42;;;11.95;;
42084;SDS011;27746;52.228;20.890;2024-01-15T00:35:37;22.67;;;10.85;;
42084;SDS011;27746;52.228;20.890;2024-01-15T00:38:05;19.45;;;10.95;;
42084;SDS011;27746;52.228;20.890;2024-01-15T00:40:33;23.67;;;11.43;;
42084;SDS011;27746;52.228;20.890;2024-01-15T00:43:01;20.17;;;10.98;;
42084;SDS011;27746;52.228;20.890;2024-01-15T00:45:28;20.73;;;10.88;;
42084;SDS011;27746;52.228;20.890;2024-01-15T00:47:56;23.83;;;11.10;;
42084;SDS011;27746;52.228;20.890;2024-01-15T00:50:24;21.00;;;10.18;;
42084;SDS011;27746;52.228;20.890;2024-01-15T00:52:51;19.85;;;13.05;;
42084;SDS011;27746;52.228;20.890;2024-01-15T00:55:18;22.25;;;10.93;;
42084;SDS011;27746;52.228;20.890;2024-01-15T00:57:46;20.48;;;11.32;;
42084;SDS011;27746;52.228;20.890;2024-01-15T01:00:14;24.80;;;12.45;;
42084;SDS011;27746;52.228;20.890;2024-01-15T01:02:42;23.77;;;12.10;;
42084;SDS011;27746;52.228;20.890;2024-01-15T01:05:09;26.73;;;12.85;;
42084;SDS011;27746;52.228;20.890;2024-01-15T01:07:36;21.02;;;11.93;;
42084;SDS011;27746;52.228;20.890;2024-01-15T01:10:03;22.60;;;12.00;;
42084;SDS011;27746;52.228;20.890;2024-01-15T01:12:30;25.60;;;12.48;;
42084;SDS011;27746;52.228;20.890;2024-01-15T01:14:57;26.27;;;12.25;;
42084;SDS011;27746;52.228;20.890;2024-01-15T01:17:26;28.17;;;13.55;;
42084;SDS011;27746;52.228;20.890;2024-01-15T01:19:53;27.52;;;13.38;;
42084;SDS011;27746;52.228;20.890;2024-01-15T01:22:20;25.83;;;13.32;;
42084;SDS011;27746;52.228;20.890;2024-01-15T01:24:47;23.67;;;12.75;;
42084;SDS011;27746;52.228;20.890;2024-01-15T01:27:14;24.92;;;12.95;;
42084;SDS011;27746;52.228;20.890;2024-01-15T01:29:41;24.48;;;12.93;;
42084;SDS011;27746;52.228;20.890;2024-01-15T01:32:09;26.25;;;14.27;;
42084;SDS011;27746;52.228;20.890;2024-01-15T01:34:41;29.73;;;13.48;;
42084;SDS011;27746;52.228;20.890;2024-01-15T01:37:08;23.30;;;13.13;;
42084;SDS011;27746;52.228;20.890;2024-01-15T01:39:37;24.88;;;13.48;;
42084;SDS011;27746;52.228;20.890;2024-01-15T01:42:05;27.40;;;13.60;;
42084;SDS011;27746;52.228;20.890;2024-01-15T01:44:32;29.73;;;14.18;;
42084;SDS011;27746;52.228;20.890;2024-01-15T01:46:59;26.52;;;13.60;;
42084;SDS011;27746;52.228;20.890;2024-01-15T01:49:27;23.67;;;13.30;;
42084;SDS011;27746;52.228;20.890;2024-01-15T01:51:56;29.50;;;14.15;;
42084;SDS011;27746;52.228;20.890;2024-01-15T01:54:24;26.67;;;14.68;;
42084;SDS011;27746;52.228;20.890;2024-01-15T01:56:52;29.40;;;14.68;;
42084;SDS011;27746;52.228;20.890;2024-01-15T01:59:19;25.42;;;14.40;;
42084;SDS011;27746;52.228;20.890;2024-01-15T02:01:46;27.85;;;13.77;;
42084;SDS011;27746;52.228;20.890;2024-01-15T02:04:15;27.27;;;14.30;;
42084;SDS011;27746;52.228;20.890;2024-01-15T02:06:42;23.38;;;13.75;;
42084;SDS011;27746;52.228;20.890;2024-01-15T02:09:11;29.98;;;14.73;;
42084;SDS011;27746;52.228;20.890;2024-01-15T02:11:40;26.55;;;14.20;;
42084;SDS011;27746;52.228;20.890;2024-01-15T02:14:07;24.55;;;13.57;;
42084;SDS011;27746;52.228;20.890;2024-01-15T02:16:35;24.65;;;13.50;;
42084;SDS011;27746;52.228;20.890;2024-01-15T02:19:02;30.02;;;14.18;;
42084;SDS011;27746;52.228;20.890;2024-01-15T02:21:30;23.23;;;13.13;;
42084;SDS011;27746;52.228;20.890;2024-01-15T02:23:59;27.52;;;14.35;;
42084;SDS011;27746;52.228;20.890;2024-01-15T02:26:26;26.27;;;13.60;;
42084;SDS011;27746;52.228;20.890;2024-01-15T02:28:53;25.15;;;14.93;;
42084;SDS011;27746;52.228;20.890;2024-01-15T02:31:20;23.33;;;12.77;;
42084;SDS011;27746;52.228;20.890;2024-01-15T02:33:47;24.35;;;13.90;;
42084;SDS011;27746;52.228;20.890;2024-01-15T02:36:15;29.92;;;14.25;;
42084;SDS011;27746;52.228;20.890;2024-01-15T02:38:42;26.38;;;13.90;;
42084;SDS011;27746;52.228;20.890;2024-01-15T02:41:11;24.90;;;13.80;;
42084;SDS011;27746;52.228;20.890;2024-01-15T02:43:39;24.55;;;13.27;;
42084;SDS011;27746;52.228;20.890;2024-01-15T02:46:06;27.77;;;12.82;;
42084;SDS011;27746;52.228;20.890;2024-01-15T02:48:33;25.25;;;14.23;;
42084;SDS011;27746;52.228;20.890;2024-01-15T02:51:01;28.23;;;14.23;;
42084;SDS011;27746;52.228;20.890;2024-01-15T02:53:28;24.48;;;13.55;;
42084;SDS011;27746;52.228;20.890;2024-01-15T02:55:55;22.35;;;13.02;;
42084;SDS011;27746;52.228;20.890;2024-01-15T02:58:23;22.77;;;13.27;;
42084;SDS011;27746;52.228;20.890;2024-01-15T03:00:52;30.85;;;14.05;;
42084;SDS011;27746;52.228;20.890;2024-01-15T03:03:19;25.52;;;12.80;;
42084;SDS011;27746;52.228;20.890;2024-01-15T03:05:46;26.58;;;14.02;;
42084;SDS011;27746;52.228;20.890;2024-01-15T03:08:13;27.50;;;13.68;;
42084;SDS011;27746;52.228;20.890;2024-01-15T03:10:40;25.95;;;13.63;;
42084;SDS011;27746;52.228;20.890;2024-01-15T03:13:07;26.08;;;13.98;;
42084;SDS011;27746;52.228;20.890;2024-01-15T03:15:36;25.38;;;14.25;;
42084;SDS011;27746;52.228;20.890;2024-01-15T03:18:03;26.00;;;13.65;;
42084;SDS011;27746;52.228;20.890;2024-01-15T03:20:30;27.70;;;14.77;;
42084;SDS011;27746;52.228;20.890;2024-01-15T03:22:57;27.38;;;14.68;;
42084;SDS011;27746;52.228;20.890;2024-01-15T03:25:24;28.42;;;14.30;;
42084;SDS011;27746;52.228;20.890;2024-01-15T03:27:52;32.30;;;15.77;;
42084;SDS011;27746;52.228;20.890;2024-01-15T03:30:19;28.52;;;15.18;;
42084;SDS011;27746;52.228;20.890;2024-01-15T03:32:47;28.73;;;15.60;;
42084;SDS011;27746;52.228;20.890;2024-01-15T03:35:15;28.08;;;15.52;;
42084;SDS011;27746;52.228;20.890;2024-01-15T03:37:42;32.28;;;14.50;;
42084;SDS011;27746;52.228;20.890;2024-01-15T03:40:09;32.97;;;15.38;;
42084;SDS011;27746;52.228;20.890;2024-01-15T03:42:37;29.67;;;15.32;;
42084;SDS011;27746;52.228;20.890;2024-01-15T03:45:05;30.30;;;14.30;;
42084;SDS011;27746;52.228;20.890;2024-01-15T03:47:32;29.52;;;14.95;;
42084;SDS011;27746;52.228;20.890;2024-01-15T03:50:00;33.45;;;15.13;;
42084;SDS011;27746;52.228;20.890;2024-01-15T03:52:27;27.48;;;13.80;;
42084;SDS011;27746;52.228;20.890;2024-01-15T03:54:54;29.52;;;15.43;;
42084;SDS011;27746;52.228;20.890;2024-01-15T03:57:21;32.45;;;15.35;;
42084;SDS011;27746;52.228;20.890;2024-01-15T03:59:49;29.13;;;14.52;;
42084;SDS011;27746;52.228;20.890;2024-01-15T04:02:16;28.38;;;14.32;;
42084;SDS011;27746;52.228;20.890;2024-01-15T04:04:43;25.55;;;14.57;;
42084;SDS011;27746;52.228;20.890;2024-01-15T04:07:11;33.47;;;16.50;;
42084;SDS011;27746;52.228;20.890;2024-01-15T04:09:38;24.52;;;13.40;;
42084;SDS011;27746;52.228;20.890;2024-01-15T04:12:06;26.05;;;13.48;;
42084;SDS011;27746;52.228;20.890;2024-01-15T04:14:33;27.25;;;14.23;;
42084;SDS011;27746;52.228;20.890;2024-01-15T04:17:00;24.45;;;12.90;;
42084;SDS011;27746;52.228;20.890;2024-01-15T04:19:27;25.35;;;12.65;;
42084;SDS011;27746;52.228;20.890;2024-01-15T04:21:54;26.73;;;12.73;;
42084;SDS011;27746;52.228;20.890;2024-01-15T04:24:23;23.63;;;13.30;;
42084;SDS011;27746;52.228;20.890;2024-01-15T04:26:50;24.70;;;12.13;;
42084;SDS011;27746;52.228;20.890;2024-01-15T04:29:17;25.23;;;13.20;;
42084;SDS011;27746;52.228;20.890;2024-01-15T04:31:44;25.48;;;12.95;;
42084;SDS011;27746;52.228;20.890;2024-01-15T04:34:11;21.83;;;12.18;;
42084;SDS011;27746;52.228;20.890;2024-01-15T04:36:38;22.55;;;12.20;;
42084;SDS011;27746;52.228;20.890;2024-01-15T04:39:06;23.85;;;12.70;;
42084;SDS011;27746;52.228;20.890;2024-01-15T04:41:34;21.77;;;12.40;;
42084;SDS011;27746;52.228;20.890;2024-01-15T04:44:02;23.58;;;11.38;;
42084;SDS011;27746;52.228;20.890;2024-01-15T04:46:29;21.67;;;10.82;;
42084;SDS011;27746;52.228;20.890;2024-01-15T04:48:56;22.25;;;11.38;;
42084;SDS011;27746;52.228;20.890;2024-01-15T04:51:22;22.13;;;12.05;;
42084;SDS011;27746;52.228;20.890;2024-01-15T04:53:49;23.23;;;10.75;;
42084;SDS011;27746;52.228;20.890;2024-01-15T04:56:16;22.92;;;10.13;;
42084;SDS011;27746;52.228;20.890;2024-01-15T04:58:45;22.50;;;11.98;;
42084;SDS011;27746;52.228;20.890;2024-01-15T05:01:12;22.33;;;11.07;;
42084;SDS011;27746;52.228;20.890;2024-01-15T05:03:39;19.17;;;11.15;;
42084;SDS011;27746;52.228;20.890;2024-01-15T05:06:07;21.50;;;11.65;;
42084;SDS011;27746;52.228;20.890;2024-01-15T05:08:34;20.10;;;11.15;;
42084;SDS011;27746;52.228;20.890;2024-01-15T05:11:01;18.95;;;11.43;;
42084;SDS011;27746;52.228;20.890;2024-01-15T05:13:28;21.77;;;11.43;;
42084;SDS011;27746;52.228;20.890;2024-01-15T05:15:56;21.63;;;11.50;;
42084;SDS011;27746;52.228;20.890;2024-01-15T05:18:24;18.33;;;9.13;;
42084;SDS011;27746;52.228;20.890;2024-01-15T05:20:51;19.92;;;11.23;;
42084;SDS011;27746;52.228;20.890;2024-01-15T05:23:18;19.05;;;11.15;;
42084;SDS011;27746;52.228;20.890;2024-01-15T05:25:45;22.20;;;11.10;;
42084;SDS011;27746;52.228;20.890;2024-01-15T05:28:13;18.75;;;10.40;;
42084;SDS011;27746;52.228;20.890;2024-01-15T05:30:40;21.10;;;10.70;;
42084;SDS011;27746;52.228;20.890;2024-01-15T05:33:09;19.10;;;11.35;;
42084;SDS011;27746;52.228;20.890;2024-01-15T05:35:36;24.35;;;11.63;;
42084;SDS011;27746;52.228;20.890;2024-01-15T05:38:03;21.13;;;10.73;;
42084;SDS011;27746;52.228;20.890;2024-01-15T05:40:30;20.08;;;10.82;;
42084;SDS011;27746;52.228;20.890;2024-01-15T05:42:57;21.50;;;10.57;;
42084;SDS011;27746;52.228;20.890;2024-01-15T05:45:25;22.80;;;10.68;;
42084;SDS011;27746;52.228;20.890;2024-01-15T05:47:52;26.02;;;13.15;;
42084;SDS011;27746;52.228;20.890;2024-01-15T05:50:22;19.77;;;11.73;;
42084;SDS011;27746;52.228;20.890;2024-01-15T05:52:49;20.80;;;12.20;;
42084;SDS011;27746;52.228;20.890;2024-01-15T05:55:17;20.42;;;10.90;;
42084;SDS011;27746;52.228;20.890;2024-01-15T05:57:44;21.50;;;11.30;;
42084;SDS011;27746;52.228;20.890;2024-01-15T06:00:11;20.98;;;10.60;;
42084;SDS011;27746;52.228;20.890;2024-01-15T06:02:39;24.55;;;11.10;;
42084;SDS011;27746;52.228;20.890;2024-01-15T06:05:06;21.92;;;11.48;;
42084;SDS011;27746;52.228;20.890;2024-01-15T06:07:34;20.90;;;10.52;;
42084;SDS011;27746;52.228;20.890;2024-01-15T06:10:02;16.90;;;10.20;;
42084;SDS011;27746;52.228;20.890;2024-01-15T06:12:29;18.20;;;10.75;;
42084;SDS011;27746;52.228;20.890;2024-01-15T06:14:57;18.77;;;11.68;;
42084;SDS011;27746;52.228;20.890;2024-01-15T06:17:24;19.60;;;10.32;;
42084;SDS011;27746;52.228;20.890;2024-01-15T06:19:51;19.65;;;12.13;;
42084;SDS011;27746;52.228;20.890;2024-01-15T06:22:18;19.90;;;11.25;;
42084;SDS011;27746;52.228;20.890;2024-01-15T06:24:47;20.95;;;11.73;;
42084;SDS011;27746;52.228;20.890;2024-01-15T06:27:14;24.90;;;12.75;;
42084;SDS011;27746;52.228;20.890;2024-01-15T06:29:44;23.05;;;12.02;;
42084;SDS011;27746;52.228;20.890;2024-01-15T06:32:11;22.95;;;11.75;;
42084;SDS011;27746;52.228;20.890;2024-01-15T06:34:38;22.52;;;12.15;;
42084;SDS011;27746;52.228;20.890;2024-01-15T06:37:05;24.83;;;12.52;;
42084;SDS011;27746;52.228;20.890;2024-01-15T06:39:32;20.10;;;11.73;;
42084;SDS011;27746;52.228;20.890;2024-01-15T06:42:01;22.35;;;11.18;;
42084;SDS011;27746;52.228;20.890;2024-01-15T06:44:28;20.20;;;10.65;;
42084;SDS011;27746;52.228;20.890;2024-01-15T06:46:55;18.15;;;11.20;;
42084;SDS011;27746;52.228;20.890;2024-01-15T06:49:27;23.08;;;11.90;;
42084;SDS011;27746;52.228;20.890;2024-01-15T06:51:54;24.63;;;12.70;;
42084;SDS011;27746;52.228;20.890;2024-01-15T06:54:21;22.25;;;11.20;;
42084;SDS011;27746;52.228;20.890;2024-01-15T06:56:49;21.33;;;11.27;;
42084;SDS011;27746;52.228;20.890;2024-01-15T06:59:17;17.23;;;11.48;;
42084;SDS011;27746;52.228;20.890;2024-01-15T07:01:44;23.38;;;11.30;;
42084;SDS011;27746;52.228;20.890;2024-01-15T07:04:11;20.50;;;11.57;;
42084;SDS011;27746;52.228;20.890;2024-01-15T07:06:39;23.60;;;12.27;;
42084;SDS011;27746;52.228;20.890;2024-01-15T07:09:06;24.38;;;12.45;;
42084;SDS011;27746;52.228;20.890;2024-01-15T07:11:34;21.13;;;11.60;;
42084;SDS011;27746;52.228;20.890;2024-01-15T07:14:01;24.48;;;11.55;;
42084;SDS011;27746;52.228;20.890;2024-01-15T07:16:30;22.40;;;12.55;;
42084;SDS011;27746;52.228;20.890;2024-01-15T07:18:57;24.05;;;12.38;;
42084;SDS011;27746;52.228;20.890;2024-01-15T07:21:24;22.63;;;11.63;;
42084;SDS011;27746;52.228;20.890;2024-01-15T07:23:51;24.10;;;12.63;;
42084;SDS011;27746;52.228;20.890;2024-01-15T07:26:18;27.48;;;13.93;;
42084;SDS011;27746;52.228;20.890;2024-01-15T07:28:45;23.92;;;12.65;;
42084;SDS011;27746;52.228;20.890;2024-01-15T07:31:12;43.47;;;19.85;;
42084;SDS011;27746;52.228;20.890;2024-01-15T07:33:41;31.88;;;15.25;;
42084;SDS011;27746;52.228;20.890;2024-01-15T07:36:08;25.00;;;13.55;;
42084;SDS011;27746;52.228;20.890;2024-01-15T07:38:35;26.20;;;14.77;;
42084;SDS011;27746;52.228;20.890;2024-01-15T07:41:02;27.92;;;14.05;;
42084;SDS011;27746;52.228;20.890;2024-01-15T07:43:29;24.92;;;13.93;;
42084;SDS011;27746;52.228;20.890;2024-01-15T07:45:57;23.27;;;12.73;;
42084;SDS011;27746;52.228;20.890;2024-01-15T07:48:24;22.75;;;12.32;;
42084;SDS011;27746;52.228;20.890;2024-01-15T07:50:52;24.45;;;11.90;;
42084;SDS011;27746;52.228;20.890;2024-01-15T07:53:19;23.25;;;11.75;;
42084;SDS011;27746;52.228;20.890;2024-01-15T07:55:46;22.80;;;11.48;;
42084;SDS011;27746;52.228;20.890;2024-01-15T07:58:14;21.95;;;12.30;;
42084;SDS011;27746;52.228;20.890;2024-01-15T08:00:41;21.92;;;10.73;;
42084;SDS011;27746;52.228;20.890;2024-01-15T08:03:08;19.38;;;10.25;;
42084;SDS011;27746;52.228;20.890;2024-01-15T08:05:35;22.17;;;12.27;;
42084;SDS011;27746;52.228;20.890;2024-01-15T08:08:04;22.63;;;12.25;;
42084;SDS011;27746;52.228;20.890;2024-01-15T08:10:31;24.95;;;12.90;;
42084;SDS011;27746;52.228;20.890;2024-01-15T08:12:58;22.88;;;12.90;;
42084;SDS011;27746;52.228;20.890;2024-01-15T08:15:25;23.20;;;12.85;;
42084;SDS011;27746;52.228;20.890;2024-01-15T08:17:55;29.30;;;14.40;;
42084;SDS011;27746;52.228;20.890;2024-01-15T08:20:22;25.95;;;13.25;;
42084;SDS011;27746;52.228;20.890;2024-01-15T08:22:49;23.45;;;12.05;;
42084;SDS011;27746;52.228;20.890;2024-01-15T08:25:18;20.10;;;11.40;;
42084;SDS011;27746;52.228;20.890;2024-01-15T08:27:45;19.20;;;10.35;;
42084;SDS011;27746;52.228;20.890;2024-01-15T08:30:12;20.90;;;10.10;;
42084;SDS011;27746;52.228;20.890;2024-01-15T08:32:40;15.70;;;9.82;;
42084;SDS011;27746;52.228;20.890;2024-01-15T08:35:07;16.40;;;9.98;;
42084;SDS011;27746;52.228;20.890;2024-01-15T08:37:35;15.90;;;9.60;;
42084;SDS011;27746;52.228;20.890;2024-01-15T08:40:02;17.02;;;8.85;;
42084;SDS011;27746;52.228;20.890;2024-01-15T08:42:31;15.25;;;9.30;;
42084;SDS011;27746;52.228;20.890;2024-01-15T08:44:58;17.05;;;9.82;;
42084;SDS011;27746;52.228;20.890;2024-01-15T08:47:25;14.95;;;8.25;;
42084;SDS011;27746;52.228;20.890;2024-01-15T08:49:52;16.88;;;8.75;;
42084;SDS011;27746;52.228;20.890;2024-01-15T08:52:20;15.32;;;9.70;;
42084;SDS011;27746;52.228;20.890;2024-01-15T08:54:47;17.40;;;10.18;;
42084;SDS011;27746;52.228;20.890;2024-01-15T08:57:14;20.05;;;10.85;;
42084;SDS011;27746;52.228;20.890;2024-01-15T08:59:42;18.05;;;9.73;;
42084;SDS011;27746;52.228;20.890;2024-01-15T09:02:10;17.05;;;9.95;;
42084;SDS011;27746;52.228;20.890;2024-01-15T09:04:38;18.88;;;10.48;;
42084;SDS011;27746;52.228;20.890;2024-01-15T09:07:05;18.38;;;9.70;;
42084;SDS011;27746;52.228;20.890;2024-01-15T09:09:32;14.85;;;9.25;;
42084;SDS011;27746;52.228;20.890;2024-01-15T09:12:00;16.42;;;9.60;;
42084;SDS011;27746;52.228;20.890;2024-01-15T09:14:27;15.95;;;9.48;;
42084;SDS011;27746;52.228;20.890;2024-01-15T09:16:55;15.52;;;8.20;;
42084;SDS011;27746;52.228;20.890;2024-01-15T09:19:23;13.18;;;7.65;;
42084;SDS011;27746;52.228;20.890;2024-01-15T09:21:50;15.25;;;8.70;;
42084;SDS011;27746;52.228;20.890;2024-01-15T09:24:17;10.98;;;6.53;;
42084;SDS011;27746;52.228;20.890;2024-01-15T09:26:44;14.07;;;7.88;;
42084;SDS011;27746;52.228;20.890;2024-01-15T09:29:11;12.70;;;7.28;;
42084;SDS011;27746;52.228;20.890;2024-01-15T09:31:40;11.18;;;6.75;;
42084;SDS011;27746;52.228;20.890;2024-01-15T09:34:09;14.57;;;8.18;;
42084;SDS011;27746;52.228;20.890;2024-01-15T09:36:39;10.43;;;6.35;;
42084;SDS011;27746;52.228;20.890;2024-01-15T09:39:07;14.52;;;7.05;;
42084;SDS011;27746;52.228;20.890;2024-01-15T09:41:35;12.93;;;6.13;;
42084;SDS011;27746;52.228;20.890;2024-01-15T09:44:03;10.73;;;5.80;;
42084;SDS011;27746;52.228;20.890;2024-01-15T09:46:30;11.23;;;6.07;;
42084;SDS011;27746;52.228;20.890;2024-01-15T09:48:58;10.98;;;6.13;;
42084;SDS011;27746;52.228;20.890;2024-01-15T09:51:28;12.20;;;6.15;;
42084;SDS011;27746;52.228;20.890;2024-01-15T09:53:58;9.60;;;5.63;;
42084;SDS011;27746;52.228;20.890;2024-01-15T09:56:25;9.45;;;5.53;;
42084;SDS011;27746;52.228;20.890;2024-01-15T09:58:52;10.50;;;5.65;;
42084;SDS011;27746;52.228;20.890;2024-01-15T10:01:20;11.40;;;5.70;;
42084;SDS011;27746;52.228;20.890;2024-01-15T10:03:47;8.68;;;5.18;;
42084;SDS011;27746;52.228;20.890;2024-01-15T10:06:15;8.10;;;4.82;;
42084;SDS011;27746;52.228;20.890;2024-01-15T10:08:44;13.38;;;5.57;;
42084;SDS011;27746;52.228;20.890;2024-01-15T10:11:14;10.88;;;5.95;;
42084;SDS011;27746;52.228;20.890;2024-01-15T10:13:41;10.93;;;5.72;;
42084;SDS011;27746;52.228;20.890;2024-01-15T10:16:10;13.25;;;5.90;;
42084;SDS011;27746;52.228;20.890;2024-01-15T10:18:37;11.07;;;5.28;;
42084;SDS011;27746;52.228;20.890;2024-01-15T10:21:05;11.15;;;5.03;;
42084;SDS011;27746;52.228;20.890;2024-01-15T10:23:33;11.70;;;5.85;;
42084;SDS011;27746;52.228;20.890;2024-01-15T10:26:02;10.07;;;5.47;;
42084;SDS011;27746;52.228;20.890;2024-01-15T10:28:29;11.82;;;6.15;;
42084;SDS011;27746;52.228;20.890;2024-01-15T10:30:57;15.05;;;7.07;;
42084;SDS011;27746;52.228;20.890;2024-01-15T10:33:25;10.43;;;5.68;;
42084;SDS011;27746;52.228;20.890;2024-01-15T10:35:53;14.05;;;6.95;;
42084;SDS011;27746;52.228;20.890;2024-01-15T10:38:20;19.95;;;6.50;;
42084;SDS011;27746;52.228;20.890;2024-01-15T10:40:48;12.45;;;6.47;;
42084;SDS011;27746;52.228;20.890;2024-01-15T10:43:19;13.32;;;6.15;;
42084;SDS011;27746;52.228;20.890;2024-01-15T10:45:47;12.38;;;7.18;;
42084;SDS011;27746;52.228;20.890;2024-01-15T10:48:16;11.73;;;6.43;;
42084;SDS011;27746;52.228;20.890;2024-01-15T10:50:44;10.63;;;5.57;;
42084;SDS011;27746;52.228;20.890;2024-01-15T10:53:12;13.07;;;6.45;;
42084;SDS011;27746;52.228;20.890;2024-01-15T10:55:39;10.85;;;5.70;;
42084;SDS011;27746;52.228;20.890;2024-01-15T10:58:08;11.40;;;5.45;;
42084;SDS011;27746;52.228;20.890;2024-01-15T11:00:37;11.10;;;5.68;;
42084;SDS011;27746;52.228;20.890;2024-01-15T11:03:05;12.40;;;5.88;;
42084;SDS011;27746;52.228;20.890;2024-01-15T11:05:33;10.93;;;6.07;;
42084;SDS011;27746;52.228;20.890;2024-01-15T11:08:01;8.82;;;5.65;;
42084;SDS011;27746;52.228;20.890;2024-01-15T11:10:43;13.48;;;6.75;;
42084;SDS011;27746;52.228;20.890;2024-01-15T11:13:15;11.63;;;5.55;;
42084;SDS011;27746;52.228;20.890;2024-01-15T11:15:56;11.52;;;6.15;;
42084;SDS011;27746;52.228;20.890;2024-01-15T11:18:23;11.40;;;5.80;;
42084;SDS011;27746;52.228;20.890;2024-01-15T11:23:42;12.38;;;6.15;;
42084;SDS011;27746;52.228;20.890;2024-01-15T11:28:55;13.45;;;6.15;;
42084;SDS011;27746;52.228;20.890;2024-01-15T11:31:27;13.25;;;6.68;;
42084;SDS011;27746;52.228;20.890;2024-01-15T11:33:54;11.88;;;6.32;;
42084;SDS011;27746;52.228;20.890;2024-01-15T11:36:24;12.07;;;6.18;;
42084;SDS011;27746;52.228;20.890;2024-01-15T11:41:59;13.00;;;6.07;;
42084;SDS011;27746;52.228;20.890;2024-01-15T11:44:28;13.38;;;6.15;;
42084;SDS011;27746;52.228;20.890;2024-01-15T11:46:57;11.63;;;6.18;;
42084;SDS011;27746;52.228;20.890;2024-01-15T11:49:26;15.63;;;7.03;;
42084;SDS011;27746;52.228;20.890;2024-01-15T11:52:00;12.43;;;7.10;;
42084;SDS011;27746;52.228;20.890;2024-01-15T11:54:26;14.32;;;6.70;;
42084;SDS011;27746;52.228;20.890;2024-01-15T11:56:56;15.25;;;6.95;;
42084;SDS011;27746;52.228;20.890;2024-01-15T11:59:24;12.85;;;6.55;;
42084;SDS011;27746;52.228;20.890;2024-01-15T12:01:51;16.13;;;7.18;;
42084;SDS011;27746;52.228;20.890;2024-01-15T12:04:21;16.80;;;7.78;;
42084;SDS011;27746;52.228;20.890;2024-01-15T12:06:48;12.77;;;6.85;;
42084;SDS011;27746;52.228;20.890;2024-01-15T12:09:18;13.95;;;6.22;;
42084;SDS011;27746;52.228;20.890;2024-01-15T12:11:47;11.48;;;6.95;;
42084;SDS011;27746;52.228;20.890;2024-01-15T12:14:16;14.50;;;7.10;;
42084;SDS011;27746;52.228;20.890;2024-01-15T12:16:43;14.57;;;7.13;;
42084;SDS011;27746;52.228;20.890;2024-01-15T12:19:10;13.10;;;6.60;;
42084;SDS011;27746;52.228;20.890;2024-01-15T12:21:40;18.30;;;8.27;;
42084;SDS011;27746;52.228;20.890;2024-01-15T12:24:07;16.05;;;7.50;;
42084;SDS011;27746;52.228;20.890;2024-01-15T12:26:34;12.18;;;8.07;;
42084;SDS011;27746;52.228;20.890;2024-01-15T12:29:01;14.23;;;7.18;;
42084;SDS011;27746;52.228;20.890;2024-01-15T12:31:29;17.17;;;7.75;;
42084;SDS011;27746;52.228;20.890;2024-01-15T12:33:56;17.30;;;8.35;;
42084;SDS011;27746;52.228;20.890;2024-01-15T12:36:23;18.23;;;9.27;;
42084;SDS011;27746;52.228;20.890;2024-01-15T12:38:52;17.70;;;9.05;;
42084;SDS011;27746;52.228;20.890;2024-01-15T12:41:19;21.27;;;9.65;;
42084;SDS011;27746;52.228;20.890;2024-01-15T12:43:46;22.95;;;9.52;;
42084;SDS011;27746;52.228;20.890;2024-01-15T12:46:13;19.88;;;10.20;;
42084;SDS011;27746;52.228;20.890;2024-01-15T12:48:40;21.02;;;11.13;;
42084;SDS011;27746;52.228;20.890;2024-01-15T12:51:08;24.60;;;12.02;;
42084;SDS011;27746;52.228;20.890;2024-01-15T12:53:35;23.05;;;10.73;;
42084;SDS011;27746;52.228;20.890;2024-01-15T12:56:04;17.15;;;9.68;;
42084;SDS011;27746;52.228;20.890;2024-01-15T12:58:32;18.10;;;9.70;;
42084;SDS011;27746;52.228;20.890;2024-01-15T13:00:59;16.42;;;9.23;;
42084;SDS011;27746;52.228;20.890;2024-01-15T13:03:26;24.17;;;9.73;;
42084;SDS011;27746;52.228;20.890;2024-01-15T13:05:53;19.83;;;9.77;;
42084;SDS011;27746;52.228;20.890;2024-01-15T13:08:21;17.80;;;8.77;;
42084;SDS011;27746;52.228;20.890;2024-01-15T13:10:50;15.57;;;7.68;;
42084;SDS011;27746;52.228;20.890;2024-01-15T13:13:22;19.13;;;9.35;;
42084;SDS011;27746;52.228;20.890;2024-01-15T13:15:49;22.08;;;10.18;;
42084;SDS011;27746;52.228;20.890;2024-01-15T13:18:16;23.67;;;11.13;;
42084;SDS011;27746;52.228;20.890;2024-01-15T13:20:43;18.42;;;10.45;;
42084;SDS011;27746;52.228;20.890;2024-01-15T13:23:11;21.60;;;10.15;;
42084;SDS011;27746;52.228;20.890;2024-01-15T13:25:38;22.92;;;10.63;;
42084;SDS011;27746;52.228;20.890;2024-01-15T13:28:06;21.30;;;10.25;;
42084;SDS011;27746;52.228;20.890;2024-01-15T13:30:34;24.55;;;10.85;;
42084;SDS011;27746;52.228;20.890;2024-01-15T13:33:02;20.67;;;11.10;;
42084;SDS011;27746;52.228;20.890;2024-01-15T13:35:30;21.30;;;10.77;;
42084;SDS011;27746;52.228;20.890;2024-01-15T13:37:58;24.33;;;11.07;;
42084;SDS011;27746;52.228;20.890;2024-01-15T13:40:25;22.52;;;10.15;;
42084;SDS011;27746;52.228;20.890;2024-01-15T13:42:52;19.23;;;9.55;;
42084;SDS011;27746;52.228;20.890;2024-01-15T13:45:19;19.80;;;9.75;;
42084;SDS011;27746;52.228;20.890;2024-01-15T13:47:50;22.10;;;10.70;;
42084;SDS011;27746;52.228;20.890;2024-01-15T13:50:17;24.02;;;9.48;;
42084;SDS011;27746;52.228;20.890;2024-01-15T13:52:44;19.13;;;9.25;;
42084;SDS011;27746;52.228;20.890;2024-01-15T13:55:11;20.88;;;8.88;;
42084;SDS011;27746;52.228;20.890;2024-01-15T13:57:39;21.17;;;9.50;;
42084;SDS011;27746;52.228;20.890;2024-01-15T14:00:06;23.80;;;9.73;;
42084;SDS011;27746;52.228;20.890;2024-01-15T14:02:34;25.00;;;10.90;;
42084;SDS011;27746;52.228;20.890;2024-01-15T14:05:03;16.95;;;9.20;;
42084;SDS011;27746;52.228;20.890;2024-01-15T14:07:31;19.48;;;9.43;;
42084;SDS011;27746;52.228;20.890;2024-01-15T14:09:58;21.33;;;9.80;;
42084;SDS011;27746;52.228;20.890;2024-01-15T14:12:26;21.45;;;9.50;;
42084;SDS011;27746;52.228;20.890;2024-01-15T14:14:53;16.42;;;9.15;;
42084;SDS011;27746;52.228;20.890;2024-01-15T14:17:20;20.80;;;9.25;;
42084;SDS011;27746;52.228;20.890;2024-01-15T14:19:47;17.85;;;8.00;;
42084;SDS011;27746;52.228;20.890;2024-01-15T14:22:16;26.00;;;10.38;;
42084;SDS011;27746;52.228;20.890;2024-01-15T14:24:43;18.33;;;8.15;;